Time;durP1;ratioP1;P1;durP2;ratioP2;P2;SDS_P1;SDS_P2;PMS_P1;PMS_P2;Temp;Humidity;BMP_temperature;BMP_pressure;BME280_temperature;BME280_humidity;BME280_pressure;Samples;Min_cycle;Max_cycle;Signal;HPM_P1;HPM_P2
2021/08/26 00:05:59;;;;;;;8.17;4.20;;;;;;;;;;4980102;28;20179;-78
2021/08/26 00:09:03;;;;;;;7.27;4.37;;;;;;;;;;4981267;28;20342;-79
2021/08/26 00:12:11;;;;;;;6.53;3.67;;;;;;;;;;4981360;28;20214;-79
2021/08/26 00:15:15;;;;;;;6.87;4.50;;;;;;;;;;4966562;28;20195;-78
2021/08/26 00:18:19;;;;;;;6.80;4.10;;;;;;;;;;4979383;28;20210;-79
2021/08/26 00:21:23;;;;;;;10.10;3.83;;;;;;;;;;4979760;28;20226;-78
2021/08/26 00:24:27;;;;;;;7.87;4.40;;;;;;;;;;4979918;28;20179;-79
2021/08/26 00:27:31;;;;;;;8.87;4.70;;;;;;;;;;4980405;28;20187;-78
2021/08/26 00:30:36;;;;;;;6.97;4.50;;;;;;;;;;4948576;28;20511;-79
2021/08/26 00:33:52;;;;;;;7.60;4.70;;;;;;;;;;4968535;28;20531;-78
2021/08/26 00:36:57;;;;;;;6.57;4.20;;;;;;;;;;4978454;28;20198;-79
2021/08/26 00:40:01;;;;;;;7.27;3.90;;;;;;;;;;4967709;28;20187;-79
2021/08/26 00:43:06;;;;;;;5.93;4.10;;;;;;;;;;4968046;28;20206;-79
2021/08/26 00:46:14;;;;;;;9.13;4.83;;;;;;;;;;4980432;28;20519;-79
2021/08/26 00:49:18;;;;;;;11.43;4.67;;;;;;;;;;4979044;28;20179;-78
2021/08/26 00:52:25;;;;;;;8.10;4.40;;;;;;;;;;4978841;28;20222;-79
2021/08/26 00:55:29;;;;;;;6.30;4.07;;;;;;;;;;4977441;28;20194;-79
2021/08/26 00:58:33;;;;;;;6.20;3.90;;;;;;;;;;4977872;28;20211;-79
2021/08/26 01:02:11;;;;;;;7.33;3.70;;;;;;;;;;4978080;28;20222;-79
2021/08/26 01:05:20;;;;;;;6.67;4.30;;;;;;;;;;4979166;28;20191;-79
2021/08/26 01:08:34;;;;;;;8.47;5.07;;;;;;;;;;4982953;28;20187;-79
2021/08/26 01:11:42;;;;;;;6.33;4.13;;;;;;;;;;4982576;28;20218;-79
2021/08/26 01:14:46;;;;;;;8.90;4.27;;;;;;;;;;4971009;28;20178;-79
2021/08/26 01:17:50;;;;;;;6.77;4.47;;;;;;;;;;4982495;28;20222;-80
2021/08/26 01:20:54;;;;;;;7.00;3.90;;;;;;;;;;4971020;28;20736;-79
2021/08/26 01:24:01;;;;;;;9.57;4.60;;;;;;;;;;4972278;28;20206;-79
2021/08/26 01:27:06;;;;;;;7.90;4.67;;;;;;;;;;4970570;28;20198;-79
2021/08/26 01:30:18;;;;;;;9.57;4.20;;;;;;;;;;4963195;29;20638;-79
2021/08/26 01:33:22;;;;;;;7.23;4.73;;;;;;;;;;4955953;28;20658;-79
2021/08/26 01:36:31;;;;;;;7.60;4.63;;;;;;;;;;4982319;28;20195;-79
2021/08/26 01:39:45;;;;;;;7.47;4.30;;;;;;;;;;4970073;28;20210;-78
2021/08/26 01:42:49;;;;;;;6.50;4.47;;;;;;;;;;4962848;28;20224;-79
2021/08/26 01:45:53;;;;;;;5.47;3.77;;;;;;;;;;4963397;29;20191;-79
2021/08/26 01:48:57;;;;;;;6.57;4.23;;;;;;;;;;4989338;28;20190;-79
2021/08/26 01:52:02;;;;;;;7.43;4.53;;;;;;;;;;4981810;28;20562;-78
2021/08/26 01:55:07;;;;;;;6.47;4.27;;;;;;;;;;4959827;28;20199;-79
2021/08/26 01:58:13;;;;;;;6.77;4.40;;;;;;;;;;4981089;28;20551;-78
2021/08/26 02:01:17;;;;;;;8.47;4.90;;;;;;;;;;4970121;28;20226;-79
2021/08/26 02:04:21;;;;;;;7.50;4.70;;;;;;;;;;4981890;28;20527;-79
2021/08/26 02:07:25;;;;;;;7.07;4.80;;;;;;;;;;4981976;28;20195;-79
2021/08/26 02:10:36;;;;;;;8.30;5.03;;;;;;;;;;4962745;28;20183;-79
2021/08/26 02:13:40;;;;;;;10.60;5.43;;;;;;;;;;4962222;29;20184;-79
2021/08/26 02:16:44;;;;;;;9.53;5.20;;;;;;;;;;4962201;28;20215;-79
2021/08/26 02:19:48;;;;;;;9.47;5.50;;;;;;;;;;4951171;28;20211;-79
2021/08/26 02:22:52;;;;;;;8.73;5.20;;;;;;;;;;4962517;28;20188;-80
2021/08/26 02:25:56;;;;;;;8.93;5.00;;;;;;;;;;4980761;28;20634;-79
2021/08/26 02:29:01;;;;;;;8.23;5.07;;;;;;;;;;4981269;28;20191;-79
2021/08/26 02:32:05;;;;;;;9.20;5.90;;;;;;;;;;4980788;28;20701;-79
2021/08/26 02:35:10;;;;;;;8.60;5.33;;;;;;;;;;4949753;28;20639;-78
2021/08/26 02:38:14;;;;;;;8.07;5.57;;;;;;;;;;4940053;29;20219;-79
2021/08/26 02:41:19;;;;;;;8.20;5.13;;;;;;;;;;4950833;28;20227;-78
2021/08/26 02:44:23;;;;;;;9.40;5.53;;;;;;;;;;4977000;23;20233;-77
2021/08/26 02:47:27;;;;;;;9.67;5.97;;;;;;;;;;5005817;28;20201;-78
2021/08/26 02:50:31;;;;;;;10.10;5.53;;;;;;;;;;4985075;28;20190;-78
2021/08/26 02:53:35;;;;;;;8.00;5.33;;;;;;;;;;4996412;28;20190;-79
2021/08/26 02:56:39;;;;;;;10.73;6.30;;;;;;;;;;4988346;28;20241;-78
2021/08/26 02:59:44;;;;;;;7.80;5.30;;;;;;;;;;4976255;28;20206;-78
2021/08/26 03:02:48;;;;;;;9.77;5.57;;;;;;;;;;4983818;28;20225;-79
2021/08/26 03:05:52;;;;;;;10.23;5.97;;;;;;;;;;4999007;28;20182;-78
2021/08/26 03:08:56;;;;;;;11.23;5.77;;;;;;;;;;4997924;28;20189;-77
2021/08/26 03:12:04;;;;;;;9.80;5.90;;;;;;;;;;4987163;28;20217;-77
2021/08/26 03:15:08;;;;;;;8.57;5.80;;;;;;;;;;4980011;28;20194;-79
2021/08/26 03:18:12;;;;;;;10.03;6.30;;;;;;;;;;4987032;28;20213;-78
2021/08/26 03:21:16;;;;;;;9.73;6.10;;;;;;;;;;4987547;28;20218;-79
2021/08/26 03:24:21;;;;;;;10.57;6.40;;;;;;;;;;4986789;28;20194;-78
2021/08/26 03:27:25;;;;;;;10.43;6.37;;;;;;;;;;4987125;28;20201;-78
2021/08/26 03:30:29;;;;;;;9.03;6.13;;;;;;;;;;4998661;28;20182;-78
2021/08/26 03:33:33;;;;;;;8.90;6.47;;;;;;;;;;4999801;28;20186;-78
2021/08/26 03:36:37;;;;;;;11.20;6.80;;;;;;;;;;4998293;28;20194;-80
2021/08/26 03:39:41;;;;;;;8.27;6.17;;;;;;;;;;4986904;28;20226;-78
2021/08/26 03:42:45;;;;;;;10.93;6.20;;;;;;;;;;4986800;28;20225;-79
2021/08/26 03:45:50;;;;;;;10.00;5.57;;;;;;;;;;4987329;28;20210;-78
2021/08/26 03:48:54;;;;;;;11.27;6.07;;;;;;;;;;4986958;28;20541;-78
2021/08/26 03:51:58;;;;;;;9.50;6.33;;;;;;;;;;4987693;28;20229;-79
2021/08/26 03:55:03;;;;;;;10.10;6.80;;;;;;;;;;4976087;28;20178;-79
2021/08/26 03:58:07;;;;;;;11.03;6.47;;;;;;;;;;4987153;28;20198;-78
2021/08/26 04:01:11;;;;;;;9.87;6.27;;;;;;;;;;4981971;28;20222;-79
2021/08/26 04:04:16;;;;;;;11.23;6.30;;;;;;;;;;4998938;28;20514;-78
2021/08/26 04:07:20;;;;;;;11.33;7.00;;;;;;;;;;4976381;28;20209;-78
2021/08/26 04:10:24;;;;;;;8.60;6.43;;;;;;;;;;4998219;28;20182;-78
2021/08/26 04:13:28;;;;;;;10.07;6.80;;;;;;;;;;4975661;28;20194;-77
2021/08/26 04:16:33;;;;;;;13.13;6.83;;;;;;;;;;4975731;28;20178;-77
2021/08/26 04:19:36;;;;;;;11.20;6.43;;;;;;;;;;4997581;28;20209;-79
2021/08/26 04:22:41;;;;;;;10.67;6.97;;;;;;;;;;4980080;28;20234;-77
2021/08/26 04:25:45;;;;;;;12.30;7.30;;;;;;;;;;4997917;28;20530;-79
2021/08/26 04:28:49;;;;;;;13.33;6.50;;;;;;;;;;4998379;28;20198;-79
2021/08/26 04:31:53;;;;;;;10.80;6.67;;;;;;;;;;4987398;28;20221;-79
2021/08/26 04:34:57;;;;;;;15.00;7.33;;;;;;;;;;4976667;28;20194;-79
2021/08/26 04:38:01;;;;;;;10.33;6.97;;;;;;;;;;4970784;28;20182;-76
2021/08/26 04:41:05;;;;;;;10.40;6.67;;;;;;;;;;4995282;28;20708;-75
2021/08/26 04:44:10;;;;;;;12.60;7.77;;;;;;;;;;4997255;28;20209;-74
2021/08/26 04:47:14;;;;;;;9.70;6.37;;;;;;;;;;4987122;28;20186;-74
2021/08/26 04:50:18;;;;;;;10.70;6.70;;;;;;;;;;4997367;28;20186;-74
2021/08/26 04:53:22;;;;;;;11.77;6.70;;;;;;;;;;4998273;28;20629;-74
2021/08/26 04:56:26;;;;;;;9.30;6.87;;;;;;;;;;4983240;28;20205;-74
2021/08/26 04:59:30;;;;;;;11.63;6.93;;;;;;;;;;4997201;28;20217;-75
2021/08/26 05:02:34;;;;;;;10.40;6.57;;;;;;;;;;4997224;28;20229;-74
2021/08/26 05:05:38;;;;;;;15.03;6.77;;;;;;;;;;4997226;28;20530;-74
2021/08/26 05:08:49;;;;;;;10.77;6.80;;;;;;;;;;4997036;28;20190;-73
2021/08/26 05:11:58;;;;;;;13.13;7.47;;;;;;;;;;4997624;28;20209;-74
2021/08/26 05:15:02;;;;;;;11.97;7.03;;;;;;;;;;4996961;28;20194;-73
2021/08/26 05:18:08;;;;;;;11.67;6.70;;;;;;;;;;4979770;28;20539;-73
2021/08/26 05:21:12;;;;;;;11.17;7.17;;;;;;;;;;4996992;28;20222;-73
2021/08/26 05:24:16;;;;;;;12.07;7.70;;;;;;;;;;4996563;28;20194;-73
2021/08/26 05:27:20;;;;;;;12.00;7.03;;;;;;;;;;4996933;28;20206;-73
2021/08/26 05:30:24;;;;;;;11.00;7.13;;;;;;;;;;4993048;28;20653;-73
2021/08/26 05:33:28;;;;;;;11.43;6.93;;;;;;;;;;4996951;28;20198;-73
2021/08/26 05:36:33;;;;;;;11.97;6.77;;;;;;;;;;4996180;28;20197;-75
2021/08/26 05:39:37;;;;;;;10.77;6.70;;;;;;;;;;4985266;28;20214;-72
2021/08/26 05:42:41;;;;;;;10.90;6.43;;;;;;;;;;4996599;28;20237;-73
2021/08/26 05:45:46;;;;;;;12.63;7.23;;;;;;;;;;4996269;28;20218;-73
2021/08/26 05:48:50;;;;;;;12.03;7.37;;;;;;;;;;4995643;28;20202;-73
2021/08/26 05:51:56;;;;;;;14.33;7.50;;;;;;;;;;4995864;28;20225;-73
2021/08/26 05:55:00;;;;;;;11.93;7.40;;;;;;;;;;4982032;28;20193;-73
2021/08/26 05:58:04;;;;;;;12.43;7.90;;;;;;;;;;4989626;28;20202;-72
2021/08/26 06:01:08;;;;;;;11.53;7.67;;;;;;;;;;4995783;28;20577;-73
2021/08/26 06:04:13;;;;;;;11.57;7.47;;;;;;;;;;4994788;28;20190;-73
2021/08/26 06:07:17;;;;;;;11.73;7.63;;;;;;;;;;4996125;28;20209;-73
2021/08/26 06:10:21;;;;;;;16.37;7.97;;;;;;;;;;4996395;28;20182;-73
2021/08/26 06:13:26;;;;;;;10.07;6.60;;;;;;;;;;4995661;28;20672;-73
2021/08/26 06:16:30;;;;;;;11.77;7.63;;;;;;;;;;4996169;28;20186;-72
2021/08/26 06:19:34;;;;;;;13.37;8.97;;;;;;;;;;4995640;28;20214;-72
2021/08/26 06:22:40;;;;;;;13.97;8.23;;;;;;;;;;4981273;28;20222;-72
2021/08/26 06:25:44;;;;;;;12.80;7.40;;;;;;;;;;4987470;28;20198;-73
2021/08/26 06:28:48;;;;;;;11.63;7.50;;;;;;;;;;4986911;28;20199;-72
2021/08/26 06:31:53;;;;;;;11.70;7.50;;;;;;;;;;4975729;28;20211;-73
2021/08/26 06:34:58;;;;;;;11.00;6.93;;;;;;;;;;4976755;28;20178;-72
2021/08/26 06:38:02;;;;;;;12.17;8.17;;;;;;;;;;4976678;28;20175;-72
2021/08/26 06:41:08;;;;;;;13.87;8.93;;;;;;;;;;4977254;28;20226;-72
2021/08/26 06:44:12;;;;;;;14.67;7.63;;;;;;;;;;4995070;28;20202;-73
2021/08/26 06:47:16;;;;;;;13.97;8.43;;;;;;;;;;4994902;28;20186;-72
2021/08/26 06:50:20;;;;;;;11.70;7.87;;;;;;;;;;4976400;28;20191;-72
2021/08/26 06:53:24;;;;;;;10.23;7.67;;;;;;;;;;4989109;28;20198;-72
2021/08/26 06:56:28;;;;;;;15.67;8.70;;;;;;;;;;4995471;28;20182;-72
2021/08/26 06:59:32;;;;;;;13.20;8.03;;;;;;;;;;4995011;28;20205;-72
2021/08/26 07:02:37;;;;;;;13.87;8.93;;;;;;;;;;4995193;28;20218;-72
2021/08/26 07:05:41;;;;;;;12.30;7.63;;;;;;;;;;4994610;28;20661;-72
2021/08/26 07:12:33;;;;;;;12.57;7.97;;;;;;;;;;4975044;28;20223;-72
2021/08/26 07:15:37;;;;;;;14.27;8.53;;;;;;;;;;4974853;28;20202;-72
2021/08/26 07:18:41;;;;;;;16.90;8.43;;;;;;;;;;4991990;28;20213;-72
2021/08/26 07:21:47;;;;;;;12.67;8.80;;;;;;;;;;4989711;28;20716;-72
2021/08/26 07:24:51;;;;;;;15.53;9.67;;;;;;;;;;4994819;28;20182;-73
2021/08/26 07:27:55;;;;;;;14.13;8.90;;;;;;;;;;4994372;28;20190;-74
2021/08/26 07:30:59;;;;;;;15.23;8.83;;;;;;;;;;4994059;28;20558;-74
2021/08/26 07:34:03;;;;;;;13.33;9.63;;;;;;;;;;4993499;28;20190;-74
2021/08/26 07:37:07;;;;;;;13.47;9.67;;;;;;;;;;4993742;28;20186;-74
2021/08/26 07:40:12;;;;;;;14.90;9.10;;;;;;;;;;4981299;28;20226;-74
2021/08/26 07:43:16;;;;;;;16.53;10.97;;;;;;;;;;4982171;28;20542;-74
2021/08/26 07:46:20;;;;;;;16.70;10.20;;;;;;;;;;4994302;28;20212;-74
2021/08/26 07:49:24;;;;;;;17.27;10.70;;;;;;;;;;4993635;28;20684;-74
2021/08/26 07:52:28;;;;;;;15.03;10.17;;;;;;;;;;4974141;28;20229;-71
2021/08/26 07:55:32;;;;;;;15.37;10.30;;;;;;;;;;4994332;28;20184;-71
2021/08/26 07:58:37;;;;;;;17.10;10.33;;;;;;;;;;4994335;28;20189;-72
2021/08/26 08:01:42;;;;;;;16.20;10.30;;;;;;;;;;4993396;28;20232;-74
2021/08/26 08:04:46;;;;;;;16.43;10.57;;;;;;;;;;4975129;28;20205;-73
2021/08/26 08:07:50;;;;;;;16.07;10.27;;;;;;;;;;4975104;28;20198;-77
2021/08/26 08:10:54;;;;;;;18.53;11.73;;;;;;;;;;4982539;28;20577;-76
2021/08/26 08:14:01;;;;;;;17.00;11.10;;;;;;;;;;4994646;28;20213;-76
2021/08/26 08:17:05;;;;;;;15.63;11.50;;;;;;;;;;4974692;28;20688;-76
2021/08/26 08:20:10;;;;;;;20.77;11.93;;;;;;;;;;4974563;28;20218;-76
2021/08/26 08:23:14;;;;;;;19.20;12.53;;;;;;;;;;4991310;28;20201;-76
2021/08/26 08:26:18;;;;;;;17.73;11.93;;;;;;;;;;4993353;28;20189;-76
2021/08/26 08:29:22;;;;;;;18.03;11.43;;;;;;;;;;4993280;28;20209;-74
2021/08/26 08:32:26;;;;;;;22.97;13.30;;;;;;;;;;4992378;28;20225;-74
2021/08/26 08:35:30;;;;;;;17.40;12.57;;;;;;;;;;4992082;28;20675;-71
2021/08/26 08:38:35;;;;;;;20.63;14.67;;;;;;;;;;4980181;28;20196;-71
2021/08/26 08:41:39;;;;;;;21.43;14.37;;;;;;;;;;4992732;28;20601;-71
2021/08/26 08:44:43;;;;;;;23.27;14.93;;;;;;;;;;4992846;28;20217;-72
2021/08/26 08:47:48;;;;;;;24.27;16.83;;;;;;;;;;5000183;23;20237;-77
2021/08/26 08:50:56;;;;;;;22.83;15.60;;;;;;;;;;4966153;28;20226;-76
2021/08/26 08:54:00;;;;;;;22.93;16.50;;;;;;;;;;4970615;28;20213;-77
2021/08/26 08:57:04;;;;;;;23.30;17.27;;;;;;;;;;4969913;28;20206;-76
2021/08/26 09:00:17;;;;;;;25.10;17.37;;;;;;;;;;4970504;28;20226;-77
2021/08/26 09:03:21;;;;;;;25.77;18.57;;;;;;;;;;4958979;28;20522;-77
2021/08/26 09:06:43;;;;;;;24.97;18.07;;;;;;;;;;4969734;28;20194;-76
2021/08/26 09:09:52;;;;;;;26.47;18.60;;;;;;;;;;4950783;29;20227;-76
2021/08/26 09:12:56;;;;;;;24.93;18.17;;;;;;;;;;4951408;29;20238;-76
2021/08/26 09:16:02;;;;;;;26.57;17.73;;;;;;;;;;4951531;29;20182;-76
2021/08/26 09:19:30;;;;;;;25.63;17.77;;;;;;;;;;4954086;28;20194;-76
2021/08/26 09:22:34;;;;;;;23.17;16.37;;;;;;;;;;4966708;28;20303;-77
2021/08/26 09:25:40;;;;;;;21.70;16.63;;;;;;;;;;4969711;28;20964;-77
2021/08/26 09:28:44;;;;;;;23.07;16.93;;;;;;;;;;4963052;28;20287;-77
2021/08/26 09:31:48;;;;;;;23.10;16.23;;;;;;;;;;4965309;28;20229;-76
2021/08/26 09:34:52;;;;;;;20.93;14.70;;;;;;;;;;4962675;28;20197;-76
2021/08/26 09:37:58;;;;;;;18.97;13.17;;;;;;;;;;4973741;28;20202;-77
2021/08/26 09:41:03;;;;;;;20.77;16.10;;;;;;;;;;4961456;28;20727;-77
2021/08/26 09:44:14;;;;;;;18.97;13.97;;;;;;;;;;4974303;28;20197;-76
2021/08/26 09:47:18;;;;;;;20.27;14.67;;;;;;;;;;4973412;28;20206;-77
2021/08/26 09:50:50;;;;;;;21.60;15.83;;;;;;;;;;4975148;28;20190;-77
2021/08/26 09:53:54;;;;;;;23.77;17.27;;;;;;;;;;4969739;28;20214;-77
2021/08/26 09:57:00;;;;;;;30.77;20.87;;;;;;;;;;4974454;28;20205;-76
2021/08/26 10:00:05;;;;;;;22.27;17.27;;;;;;;;;;4972788;28;20206;-77
2021/08/26 10:03:16;;;;;;;22.10;16.40;;;;;;;;;;4953615;29;20187;-77
2021/08/26 10:06:20;;;;;;;21.60;15.30;;;;;;;;;;4957855;28;20205;-77
2021/08/26 10:09:25;;;;;;;17.23;13.83;;;;;;;;;;4972502;28;20212;-77
2021/08/26 10:12:29;;;;;;;17.77;13.80;;;;;;;;;;4972247;28;20222;-76
2021/08/26 10:15:35;;;;;;;21.40;15.17;;;;;;;;;;4972139;28;20206;-76
2021/08/26 10:18:39;;;;;;;22.13;15.77;;;;;;;;;;4970227;28;20194;-76
2021/08/26 10:21:44;;;;;;;23.57;19.10;;;;;;;;;;4973094;28;20590;-76
2021/08/26 10:24:49;;;;;;;23.97;19.23;;;;;;;;;;4965953;28;20947;-76
2021/08/26 10:27:56;;;;;;;22.87;17.60;;;;;;;;;;4971979;28;20198;-77
2021/08/26 10:31:26;;;;;;;21.97;16.97;;;;;;;;;;4973349;28;20238;-76
2021/08/26 10:34:32;;;;;;;20.13;17.33;;;;;;;;;;4964045;28;20321;-75
2021/08/26 10:37:43;;;;;;;18.73;15.93;;;;;;;;;;4961094;28;20267;-75
2021/08/26 10:40:47;;;;;;;18.20;14.27;;;;;;;;;;4972533;28;20234;-75
2021/08/26 10:43:59;;;;;;;19.90;17.23;;;;;;;;;;4954116;28;20195;-74
2021/08/26 10:47:03;;;;;;;20.03;15.70;;;;;;;;;;4972924;28;20676;-74
2021/08/26 10:50:21;;;;;;;20.47;15.93;;;;;;;;;;4972909;28;20198;-75
2021/08/26 10:53:28;;;;;;;17.07;14.73;;;;;;;;;;4972112;28;20214;-75
2021/08/26 10:56:34;;;;;;;15.47;13.40;;;;;;;;;;4972216;28;20210;-75
2021/08/26 10:59:38;;;;;;;16.90;12.77;;;;;;;;;;4972744;28;20194;-75
2021/08/26 11:02:42;;;;;;;14.23;11.27;;;;;;;;;;4972081;28;20228;-75
2021/08/26 11:05:47;;;;;;;14.77;11.77;;;;;;;;;;4971909;28;20209;-75
2021/08/26 11:09:18;;;;;;;16.57;12.60;;;;;;;;;;4960634;28;20198;-75
2021/08/26 11:12:24;;;;;;;14.60;11.87;;;;;;;;;;4953210;28;20226;-76
2021/08/26 11:15:29;;;;;;;15.60;11.53;;;;;;;;;;4953812;28;20207;-76
2021/08/26 11:18:34;;;;;;;15.87;12.83;;;;;;;;;;4971124;28;20243;-76
2021/08/26 11:21:43;;;;;;;13.30;11.47;;;;;;;;;;4972010;28;20239;-75
2021/08/26 11:24:51;;;;;;;14.27;11.40;;;;;;;;;;4974492;28;20668;-78
2021/08/26 11:28:31;;;;;;;12.67;10.57;;;;;;;;;;4975112;28;20202;-75
2021/08/26 11:31:36;;;;;;;12.60;10.60;;;;;;;;;;4950646;28;20653;-75
2021/08/26 11:34:48;;;;;;;11.03;9.07;;;;;;;;;;4967032;28;20676;-75
2021/08/26 11:37:53;;;;;;;9.63;8.63;;;;;;;;;;4976991;28;20187;-75
2021/08/26 11:41:03;;;;;;;9.17;8.27;;;;;;;;;;4977540;28;20321;-74
2021/08/26 11:44:13;;;;;;;9.83;8.67;;;;;;;;;;4955472;29;20200;-75
2021/08/26 11:47:29;;;;;;;10.80;8.23;;;;;;;;;;4961954;28;20203;-75
2021/08/26 11:50:36;;;;;;;12.17;9.43;;;;;;;;;;4955798;28;20196;-75
2021/08/26 11:53:40;;;;;;;10.40;9.13;;;;;;;;;;4956093;29;20509;-76
2021/08/26 11:56:53;;;;;;;10.53;9.33;;;;;;;;;;4957335;28;20649;-76
2021/08/26 12:00:13;;;;;;;10.37;9.07;;;;;;;;;;4974428;28;20198;-76
2021/08/26 12:03:21;;;;;;;10.57;9.47;;;;;;;;;;4974416;28;20639;-76
2021/08/26 12:06:25;;;;;;;8.97;8.07;;;;;;;;;;4974797;28;20191;-76
2021/08/26 12:09:29;;;;;;;9.63;8.60;;;;;;;;;;4973757;28;20190;-76
2021/08/26 12:12:33;;;;;;;8.73;7.73;;;;;;;;;;4954698;28;20551;-76
2021/08/26 12:15:54;;;;;;;9.40;7.87;;;;;;;;;;4959129;28;20191;-76
2021/08/26 12:18:59;;;;;;;9.77;8.77;;;;;;;;;;4974618;28;20187;-76
2021/08/26 12:22:03;;;;;;;9.83;8.43;;;;;;;;;;4973902;28;20230;-76
2021/08/26 12:25:07;;;;;;;11.30;8.67;;;;;;;;;;4973814;28;20597;-76
2021/08/26 12:28:12;;;;;;;9.90;8.37;;;;;;;;;;4974611;28;20178;-76
2021/08/26 12:31:21;;;;;;;7.63;6.83;;;;;;;;;;4962640;28;20222;-76
2021/08/26 12:34:27;;;;;;;8.47;7.20;;;;;;;;;;4954806;29;20188;-76
2021/08/26 12:37:31;;;;;;;7.50;6.70;;;;;;;;;;4955015;29;20188;-77
2021/08/26 12:40:52;;;;;;;8.30;6.87;;;;;;;;;;4971867;28;20198;-77
2021/08/26 12:43:58;;;;;;;7.93;6.87;;;;;;;;;;4962875;28;20531;-77
2021/08/26 12:47:06;;;;;;;8.20;7.40;;;;;;;;;;4974406;28;20661;-76
2021/08/26 12:50:10;;;;;;;8.20;7.30;;;;;;;;;;4973408;28;20207;-76
2021/08/26 12:53:20;;;;;;;7.77;6.93;;;;;;;;;;4962826;28;20654;-76
2021/08/26 12:56:25;;;;;;;7.83;6.93;;;;;;;;;;4974012;28;20539;-77
2021/08/26 12:59:41;;;;;;;7.87;6.40;;;;;;;;;;4974139;28;20638;-77
2021/08/26 13:02:52;;;;;;;7.80;6.73;;;;;;;;;;4977238;28;20218;-77
2021/08/26 13:05:56;;;;;;;8.53;7.00;;;;;;;;;;4958681;29;20638;-77
2021/08/26 13:09:06;;;;;;;8.30;6.10;;;;;;;;;;4976954;28;20202;-76
2021/08/26 13:12:17;;;;;;;6.80;6.10;;;;;;;;;;4977946;28;20214;-76
2021/08/26 13:15:22;;;;;;;6.40;5.23;;;;;;;;;;4965822;28;20202;-76
2021/08/26 13:18:26;;;;;;;6.73;5.57;;;;;;;;;;4977198;28;20179;-76
2021/08/26 13:21:31;;;;;;;7.80;5.70;;;;;;;;;;4977109;28;20226;-76
2021/08/26 13:24:35;;;;;;;6.70;5.30;;;;;;;;;;4974200;28;20195;-76
2021/08/26 13:27:41;;;;;;;6.00;5.40;;;;;;;;;;4962254;28;20187;-76
2021/08/26 13:30:44;;;;;;;7.17;5.80;;;;;;;;;;4973524;28;20187;-76
2021/08/26 13:33:50;;;;;;;6.83;5.73;;;;;;;;;;4973043;28;20195;-76
2021/08/26 13:36:54;;;;;;;15.30;9.53;;;;;;;;;;4952087;28;20203;-76
2021/08/26 13:39:59;;;;;;;9.60;6.70;;;;;;;;;;4974308;28;20195;-76
2021/08/26 13:43:03;;;;;;;9.07;7.13;;;;;;;;;;4961318;28;20207;-76
2021/08/26 13:46:08;;;;;;;5.00;4.50;;;;;;;;;;4973421;28;20199;-76
2021/08/26 13:49:12;;;;;;;6.50;4.27;;;;;;;;;;4968971;28;20202;-76
2021/08/26 13:52:16;;;;;;;6.03;5.37;;;;;;;;;;4973552;28;20226;-76
2021/08/26 13:55:20;;;;;;;6.37;4.87;;;;;;;;;;4973598;28;20218;-77
2021/08/26 13:58:24;;;;;;;5.57;4.90;;;;;;;;;;4961279;28;20194;-76
2021/08/26 14:01:29;;;;;;;7.07;5.37;;;;;;;;;;4965510;28;20218;-76
2021/08/26 14:04:33;;;;;;;6.80;5.23;;;;;;;;;;4974373;28;20182;-77
2021/08/26 14:07:37;;;;;;;7.77;6.13;;;;;;;;;;4974221;28;20567;-77
2021/08/26 14:10:41;;;;;;;7.03;6.07;;;;;;;;;;4972321;28;20207;-77
2021/08/26 14:13:45;;;;;;;6.87;5.40;;;;;;;;;;4942039;29;20192;-76
2021/08/26 14:16:51;;;;;;;7.97;6.23;;;;;;;;;;4974827;28;20195;-77
2021/08/26 14:19:55;;;;;;;8.33;6.43;;;;;;;;;;4964570;28;20191;-76
2021/08/26 14:22:59;;;;;;;6.60;5.80;;;;;;;;;;4975964;28;20230;-76
2021/08/26 14:26:05;;;;;;;8.03;6.87;;;;;;;;;;4975423;28;20183;-77
2021/08/26 14:29:09;;;;;;;6.30;5.70;;;;;;;;;;4976181;28;20191;-77
2021/08/26 14:32:13;;;;;;;6.53;5.63;;;;;;;;;;4946968;28;20219;-76
2021/08/26 14:35:18;;;;;;;6.80;5.37;;;;;;;;;;4965131;28;20206;-77
2021/08/26 14:38:22;;;;;;;5.93;5.33;;;;;;;;;;4975791;28;20182;-76
2021/08/26 14:41:26;;;;;;;5.60;4.87;;;;;;;;;;4964333;28;20218;-77
2021/08/26 14:44:29;;;;;;;4.60;4.03;;;;;;;;;;4975753;28;20186;-77
2021/08/26 14:47:34;;;;;;;4.77;3.97;;;;;;;;;;4975038;28;20202;-77
2021/08/26 14:51:13;;;;;;;3.57;3.27;;;;;;;;;;5003204;23;20232;-86
2021/08/26 14:54:24;;;;;;;3.57;3.20;;;;;;;;;;4979503;28;20190;-87
2021/08/26 14:57:28;;;;;;;3.07;2.77;;;;;;;;;;4978191;28;20649;-87
2021/08/26 15:00:38;;;;;;;3.53;2.40;;;;;;;;;;4965321;28;20555;-86
2021/08/26 15:12:37;;;;;;;4.63;2.37;;;;;;;;;;4953911;29;20231;-76
2021/08/26 15:15:41;;;;;;;2.50;2.07;;;;;;;;;;4955558;29;20180;-76
2021/08/26 15:18:46;;;;;;;2.80;1.87;;;;;;;;;;4966940;28;20179;-76
2021/08/26 15:21:51;;;;;;;2.37;2.00;;;;;;;;;;4956163;29;20215;-76
2021/08/26 15:24:54;;;;;;;2.33;2.00;;;;;;;;;;4955791;28;20188;-75
2021/08/26 15:27:59;;;;;;;2.10;1.80;;;;;;;;;;4956005;29;20532;-76
2021/08/26 15:31:03;;;;;;;2.90;2.00;;;;;;;;;;4955945;29;20227;-76
2021/08/26 15:34:07;;;;;;;2.40;2.20;;;;;;;;;;4955539;29;20184;-75
2021/08/26 15:37:11;;;;;;;2.93;2.00;;;;;;;;;;4952404;29;20183;-76
2021/08/26 15:40:17;;;;;;;2.33;2.13;;;;;;;;;;4944209;29;20207;-75
2021/08/26 15:43:22;;;;;;;2.73;2.10;;;;;;;;;;4955520;29;20659;-76
2021/08/26 15:46:26;;;;;;;2.30;2.10;;;;;;;;;;4955747;29;20540;-76
2021/08/26 15:49:35;;;;;;;2.53;2.20;;;;;;;;;;4965914;28;20199;-74
2021/08/26 15:52:41;;;;;;;2.50;2.30;;;;;;;;;;4955417;29;20683;-75
2021/08/26 15:55:48;;;;;;;3.40;1.87;;;;;;;;;;4955517;29;20195;-75
2021/08/26 15:59:01;;;;;;;1.93;1.73;;;;;;;;;;4962844;28;20258;-75
2021/08/26 16:02:08;;;;;;;4.33;1.73;;;;;;;;;;4951779;29;20223;-75
2021/08/26 16:05:12;;;;;;;4.43;1.53;;;;;;;;;;4934958;29;20176;-76
2021/08/26 16:08:17;;;;;;;1.90;1.53;;;;;;;;;;4951832;29;20187;-76
2021/08/26 16:11:21;;;;;;;3.17;1.83;;;;;;;;;;4951094;29;20567;-75
2021/08/26 16:14:26;;;;;;;2.83;1.90;;;;;;;;;;4951345;29;20183;-76
2021/08/26 16:17:31;;;;;;;4.13;2.03;;;;;;;;;;4961441;28;20192;-76
2021/08/26 16:20:37;;;;;;;3.40;2.30;;;;;;;;;;4951932;29;20179;-76
2021/08/26 16:23:42;;;;;;;3.93;2.23;;;;;;;;;;4950747;29;20215;-76
2021/08/26 16:26:47;;;;;;;2.40;2.20;;;;;;;;;;4951869;29;20199;-76
2021/08/26 16:29:51;;;;;;;4.20;2.10;;;;;;;;;;4950846;29;20194;-75
2021/08/26 16:32:55;;;;;;;2.83;2.10;;;;;;;;;;4951208;28;20183;-75
2021/08/26 16:35:59;;;;;;;2.50;2.00;;;;;;;;;;4952340;28;20203;-75
2021/08/26 16:39:03;;;;;;;3.20;2.43;;;;;;;;;;4947910;29;20211;-76
2021/08/26 16:42:07;;;;;;;3.57;2.47;;;;;;;;;;4968531;28;20222;-76
2021/08/26 16:45:13;;;;;;;2.80;2.37;;;;;;;;;;4958341;29;20203;-76
2021/08/26 16:48:17;;;;;;;6.00;2.10;;;;;;;;;;4957061;28;20539;-76
2021/08/26 16:51:22;;;;;;;2.67;1.97;;;;;;;;;;4950662;28;20226;-76
2021/08/26 16:54:25;;;;;;;3.27;2.00;;;;;;;;;;4957109;29;20179;-76
2021/08/26 16:57:30;;;;;;;3.50;2.30;;;;;;;;;;4950084;29;20187;-76
2021/08/26 17:00:35;;;;;;;2.60;2.10;;;;;;;;;;4956896;28;20520;-76
2021/08/26 17:03:39;;;;;;;6.57;2.30;;;;;;;;;;4967723;28;20222;-76
2021/08/26 17:06:44;;;;;;;2.13;1.93;;;;;;;;;;4957969;28;20551;-76
2021/08/26 17:09:48;;;;;;;2.63;2.20;;;;;;;;;;4967358;28;20542;-76
2021/08/26 17:12:52;;;;;;;3.60;2.33;;;;;;;;;;4976937;28;20582;-76
2021/08/26 17:15:57;;;;;;;2.63;2.07;;;;;;;;;;4957413;29;20685;-76
2021/08/26 17:19:01;;;;;;;2.70;2.50;;;;;;;;;;4937706;29;20211;-76
2021/08/26 17:22:05;;;;;;;2.13;1.93;;;;;;;;;;4944151;29;20234;-76
2021/08/26 17:25:11;;;;;;;3.83;2.37;;;;;;;;;;4956490;29;20199;-76
2021/08/26 17:28:15;;;;;;;2.80;2.20;;;;;;;;;;4957202;29;20195;-76
2021/08/26 17:31:19;;;;;;;3.10;2.30;;;;;;;;;;4956688;28;20249;-76
2021/08/26 17:34:23;;;;;;;3.03;2.60;;;;;;;;;;4957001;29;20574;-76
2021/08/26 17:37:27;;;;;;;4.93;2.37;;;;;;;;;;4956692;28;20539;-76
2021/08/26 17:40:32;;;;;;;3.90;2.53;;;;;;;;;;4937406;29;20643;-76
2021/08/26 17:43:36;;;;;;;4.60;2.40;;;;;;;;;;4926476;29;20204;-76
2021/08/26 17:46:40;;;;;;;3.93;2.50;;;;;;;;;;4946369;29;20187;-76
2021/08/26 17:49:44;;;;;;;3.03;2.03;;;;;;;;;;4954189;29;20199;-76
2021/08/26 17:52:48;;;;;;;3.13;2.80;;;;;;;;;;4953200;29;20227;-76
2021/08/26 17:55:56;;;;;;;2.93;2.47;;;;;;;;;;4947960;29;20195;-76
2021/08/26 17:59:01;;;;;;;3.43;2.87;;;;;;;;;;4953623;29;20528;-76
2021/08/26 18:02:05;;;;;;;4.50;2.60;;;;;;;;;;4953963;29;20227;-76
2021/08/26 18:05:12;;;;;;;5.30;3.17;;;;;;;;;;4954088;29;20188;-76
2021/08/26 18:08:16;;;;;;;4.90;3.20;;;;;;;;;;4950616;29;20192;-76
2021/08/26 18:11:20;;;;;;;3.33;2.73;;;;;;;;;;4953434;29;20239;-76
2021/08/26 18:14:24;;;;;;;4.20;2.83;;;;;;;;;;4952434;29;20215;-76
2021/08/26 18:17:28;;;;;;;3.57;2.37;;;;;;;;;;4953840;29;20183;-76
2021/08/26 18:20:32;;;;;;;6.13;3.00;;;;;;;;;;4943137;29;20208;-75
2021/08/26 18:23:36;;;;;;;4.30;2.90;;;;;;;;;;4959146;28;20552;-76
2021/08/26 18:26:41;;;;;;;5.00;3.60;;;;;;;;;;4953794;29;20196;-77
2021/08/26 18:29:45;;;;;;;4.60;3.47;;;;;;;;;;4952331;29;20195;-76
2021/08/26 18:32:49;;;;;;;4.10;3.40;;;;;;;;;;4953500;29;20227;-76
2021/08/26 18:35:53;;;;;;;12.20;7.20;;;;;;;;;;4961665;28;20527;-76
2021/08/26 18:38:57;;;;;;;5.97;3.90;;;;;;;;;;4952642;29;20191;-78